Time;durP1;ratioP1;P1;durP2;ratioP2;P2;SDS_P1;SDS_P2;PMS_P1;PMS_P2;Temp;Humidity;BMP_temperature;BMP_pressure;BME280_temperature;BME280_humidity;BME280_pressure;Samples;Min_cycle;Max_cycle;Signal;HPM_P1;HPM_P2
2021/07/07 00:04:50;;;;;;;5.13;1.02;;;16.40;99.90;;;;;;12407041;28;20050;-39
2021/07/07 00:10:52;;;;;;;7.10;0.85;;;16.40;99.90;;;;;;12395894;28;20081;-41
2021/07/07 00:16:54;;;;;;;5.72;0.90;;;16.30;99.90;;;;;;12397150;28;20534;-41
2021/07/07 00:22:56;;;;;;;4.97;1.00;;;16.20;99.90;;;;;;12399361;28;20494;-39
2021/07/07 00:28:58;;;;;;;3.20;0.80;;;16.10;99.90;;;;;;12392380;28;20216;-40
2021/07/07 00:34:59;;;;;;;5.43;1.17;;;16.10;99.90;;;;;;12394256;28;20457;-40
2021/07/07 00:41:01;;;;;;;3.28;0.95;;;16.10;99.90;;;;;;12393947;28;20057;-39
2021/07/07 00:47:03;;;;;;;4.38;1.15;;;16.00;99.90;;;;;;12395304;28;20066;-39
2021/07/07 00:53:05;;;;;;;7.75;1.67;;;15.90;99.90;;;;;;12393265;28;20102;-39
2021/07/07 00:59:09;;;;;;;2.97;0.98;;;15.80;99.90;;;;;;12393934;28;20062;-39
2021/07/07 01:05:13;;;;;;;3.97;0.73;;;15.70;99.90;;;;;;12394977;28;20042;-40
2021/07/07 01:11:15;;;;;;;6.18;1.00;;;15.70;99.90;;;;;;12395336;28;20077;-40
2021/07/07 01:17:20;;;;;;;4.22;1.10;;;15.70;99.90;;;;;;12389640;28;20454;-39
2021/07/07 01:23:22;;;;;;;7.07;1.10;;;15.60;99.90;;;;;;12392209;28;20056;-39
2021/07/07 01:29:24;;;;;;;7.18;1.30;;;15.60;99.90;;;;;;12392774;28;20450;-40
2021/07/07 01:35:26;;;;;;;4.88;1.17;;;15.60;99.90;;;;;;12383547;28;20442;-40
2021/07/07 01:41:28;;;;;;;4.13;1.50;;;15.60;99.90;;;;;;12392917;28;20050;-40
2021/07/07 01:47:30;;;;;;;5.47;1.70;;;15.60;99.90;;;;;;12384637;28;20057;-40
2021/07/07 01:53:31;;;;;;;7.97;2.30;;;15.50;99.90;;;;;;12395282;28;20503;-39
2021/07/07 01:59:33;;;;;;;8.68;2.30;;;15.60;99.90;;;;;;12392755;28;21203;-40
2021/07/07 02:05:37;;;;;;;5.95;2.15;;;15.50;99.90;;;;;;12389536;28;20901;-40
2021/07/07 02:11:38;;;;;;;8.68;2.53;;;15.40;99.90;;;;;;12388571;28;20058;-39
2021/07/07 02:17:43;;;;;;;7.22;2.22;;;15.50;99.90;;;;;;12391329;28;20050;-39
2021/07/07 02:23:45;;;;;;;7.60;2.38;;;15.50;99.90;;;;;;12394860;28;20054;-40
2021/07/07 02:29:47;;;;;;;7.63;1.92;;;15.50;99.90;;;;;;12392998;28;20096;-40
2021/07/07 02:35:49;;;;;;;6.03;1.65;;;15.50;99.90;;;;;;12385058;28;20046;-41
2021/07/07 02:41:52;;;;;;;5.55;1.45;;;15.40;99.90;;;;;;12395062;28;20095;-40
2021/07/07 02:47:54;;;;;;;3.88;1.38;;;15.50;99.90;;;;;;12389863;28;20588;-40
2021/07/07 02:53:57;;;;;;;4.97;1.30;;;15.50;99.90;;;;;;12392643;28;20695;-42
2021/07/07 02:59:59;;;;;;;5.18;1.50;;;15.50;99.90;;;;;;12401168;28;20453;-39
2021/07/07 03:06:02;;;;;;;10.35;1.67;;;15.50;99.90;;;;;;12392362;28;20434;-40
2021/07/07 03:12:04;;;;;;;5.43;1.40;;;15.50;99.90;;;;;;12394056;28;20088;-40
2021/07/07 03:18:07;;;;;;;3.60;1.30;;;15.50;99.90;;;;;;12391577;28;20528;-40
2021/07/07 03:24:10;;;;;;;7.38;1.60;;;15.50;99.90;;;;;;12395065;28;20054;-39
2021/07/07 03:30:12;;;;;;;6.43;1.30;;;15.50;99.90;;;;;;12399491;28;20050;-39
2021/07/07 03:36:14;;;;;;;6.80;1.65;;;15.60;99.90;;;;;;12398064;28;20050;-40
2021/07/07 03:42:16;;;;;;;4.80;1.50;;;15.50;99.90;;;;;;12393830;28;20107;-39
2021/07/07 03:48:18;;;;;;;7.00;1.55;;;15.60;99.90;;;;;;12392357;28;20058;-40
2021/07/07 03:54:23;;;;;;;7.20;1.55;;;15.60;99.90;;;;;;12389481;28;20107;-39
2021/07/07 04:00:26;;;;;;;7.07;1.65;;;15.60;99.90;;;;;;12396970;28;20779;-39
2021/07/07 04:06:28;;;;;;;4.53;1.37;;;15.60;99.90;;;;;;12398271;28;20093;-39
2021/07/07 04:12:30;;;;;;;5.07;1.27;;;15.50;99.90;;;;;;12391186;28;20080;-39
2021/07/07 04:18:32;;;;;;;4.47;1.27;;;15.50;99.90;;;;;;12397337;28;20088;-39
2021/07/07 04:24:34;;;;;;;4.30;1.30;;;15.50;99.90;;;;;;12396070;28;20458;-40
2021/07/07 04:30:36;;;;;;;6.07;1.70;;;15.40;99.90;;;;;;12393320;28;20947;-40
2021/07/07 04:36:38;;;;;;;6.38;1.60;;;15.40;99.90;;;;;;12392141;28;20112;-40
2021/07/07 04:42:40;;;;;;;4.63;1.77;;;15.60;99.90;;;;;;12395474;28;20046;-40
2021/07/07 04:48:41;;;;;;;7.00;1.70;;;15.70;99.90;;;;;;12394582;28;20100;-41
2021/07/07 04:54:43;;;;;;;4.82;1.63;;;15.80;99.90;;;;;;12394861;28;20050;-40
2021/07/07 05:00:45;;;;;;;6.57;1.42;;;15.80;99.90;;;;;;12391212;28;20100;-39
2021/07/07 05:06:47;;;;;;;5.95;1.45;;;15.90;99.90;;;;;;12388693;28;20053;-42
2021/07/07 05:12:49;;;;;;;4.60;1.55;;;15.90;99.90;;;;;;12393783;28;20147;-41
2021/07/07 05:18:51;;;;;;;8.73;1.67;;;16.00;99.90;;;;;;12390330;28;20060;-40
2021/07/07 05:24:53;;;;;;;7.97;1.40;;;16.00;99.90;;;;;;12392368;28;20079;-40
2021/07/07 05:30:59;;;;;;;8.60;1.80;;;16.10;99.90;;;;;;12390006;28;20601;-39
2021/07/07 05:37:01;;;;;;;8.05;1.63;;;16.20;99.90;;;;;;12396211;28;20054;-40
2021/07/07 05:43:03;;;;;;;7.55;1.70;;;16.30;99.90;;;;;;12385906;28;20671;-39
2021/07/07 05:49:05;;;;;;;6.63;1.50;;;16.30;99.90;;;;;;12389148;28;20144;-39
2021/07/07 05:55:07;;;;;;;7.65;2.00;;;16.40;99.90;;;;;;12382347;28;20045;-40
2021/07/07 06:01:09;;;;;;;9.15;1.80;;;16.40;99.90;;;;;;12391282;28;20188;-42
2021/07/07 06:07:11;;;;;;;8.10;1.92;;;16.40;99.90;;;;;;12388319;28;20084;-40
2021/07/07 06:13:13;;;;;;;7.85;1.80;;;16.40;99.90;;;;;;12384590;28;20545;-41
2021/07/07 06:19:15;;;;;;;7.18;1.33;;;16.40;99.90;;;;;;12389103;28;20054;-40
2021/07/07 06:25:17;;;;;;;11.43;1.60;;;16.60;99.90;;;;;;12384176;28;20712;-43
2021/07/07 06:31:19;;;;;;;5.20;1.75;;;16.60;99.90;;;;;;12389423;28;20585;-40
2021/07/07 06:37:21;;;;;;;7.78;1.98;;;16.90;99.90;;;;;;12387680;28;20545;-40
2021/07/07 06:43:23;;;;;;;6.18;1.60;;;17.00;99.90;;;;;;12392209;28;20049;-40
2021/07/07 06:49:25;;;;;;;6.07;2.00;;;17.20;99.90;;;;;;12387870;28;20054;-40
2021/07/07 06:55:27;;;;;;;10.15;1.58;;;17.40;99.90;;;;;;12391086;28;20386;-40
2021/07/07 07:01:29;;;;;;;6.93;1.45;;;17.70;99.90;;;;;;12397737;28;20112;-40
2021/07/07 07:07:31;;;;;;;6.03;1.50;;;17.90;99.90;;;;;;12399790;28;20053;-40
2021/07/07 07:13:33;;;;;;;7.18;1.73;;;18.20;99.90;;;;;;12396590;28;20725;-40
2021/07/07 07:19:36;;;;;;;9.77;2.00;;;18.30;99.90;;;;;;12408179;28;20745;-40
2021/07/07 07:25:38;;;;;;;10.02;2.20;;;18.50;99.90;;;;;;12397250;28;20532;-39
2021/07/07 07:31:40;;;;;;;9.35;1.90;;;18.70;99.90;;;;;;12395014;28;20050;-40
2021/07/07 07:37:49;;;;;;;8.30;1.90;;;18.80;99.90;;;;;;12399788;28;20050;-40
2021/07/07 07:43:50;;;;;;;9.52;2.28;;;19.10;99.90;;;;;;12406051;28;20104;-42
2021/07/07 07:49:52;;;;;;;4.88;1.88;;;19.20;99.90;;;;;;12398287;28;20057;-39
2021/07/07 07:55:54;;;;;;;11.25;2.05;;;19.30;99.90;;;;;;12383771;28;20050;-40
2021/07/07 08:01:56;;;;;;;6.32;1.70;;;19.40;99.90;;;;;;12392251;28;20115;-40
2021/07/07 08:08:01;;;;;;;8.10;1.55;;;19.70;99.90;;;;;;12393234;28;20921;-39
2021/07/07 08:14:04;;;;;;;11.07;2.10;;;19.70;99.90;;;;;;12394050;28;20049;-40
2021/07/07 08:20:08;;;;;;;5.97;1.63;;;19.80;99.90;;;;;;12391555;28;20099;-40
2021/07/07 08:26:10;;;;;;;7.65;1.80;;;20.00;99.90;;;;;;12397044;28;20046;-40
2021/07/07 08:32:12;;;;;;;9.73;1.88;;;20.30;99.90;;;;;;12392203;28;20050;-40
2021/07/07 08:38:14;;;;;;;9.23;1.60;;;20.50;99.90;;;;;;12388404;28;20062;-40
2021/07/07 08:44:16;;;;;;;8.60;1.58;;;20.80;99.90;;;;;;12392908;28;20179;-40
2021/07/07 08:50:27;;;;;;;7.00;1.63;;;21.00;99.90;;;;;;12382071;28;20890;-42
2021/07/07 08:56:29;;;;;;;6.05;1.60;;;21.30;99.90;;;;;;12386749;28;20034;-40
2021/07/07 09:02:31;;;;;;;4.88;1.55;;;21.40;99.90;;;;;;12390589;28;20093;-40
2021/07/07 09:08:39;;;;;;;5.93;1.70;;;21.60;99.90;;;;;;12386165;28;20957;-40
2021/07/07 09:14:42;;;;;;;8.40;1.88;;;21.40;99.90;;;;;;12387858;28;20739;-40
2021/07/07 09:20:44;;;;;;;12.88;1.83;;;21.40;99.90;;;;;;12386882;28;20056;-43
2021/07/07 09:26:58;;;;;;;6.50;1.30;;;21.10;99.90;;;;;;12389594;28;20061;-41
2021/07/07 09:33:01;;;;;;;7.80;1.67;;;21.00;99.90;;;;;;12383070;28;20100;-41
2021/07/07 09:39:03;;;;;;;8.43;1.90;;;21.50;99.90;;;;;;12384944;28;20058;-40
2021/07/07 09:45:15;;;;;;;8.02;1.60;;;21.60;99.90;;;;;;12384280;28;20046;-41
2021/07/07 09:51:17;;;;;;;7.70;1.65;;;21.60;99.90;;;;;;12391813;28;20054;-41
2021/07/07 09:57:20;;;;;;;6.85;1.70;;;;;;;;;;12381694;28;20066;-40
2021/07/07 10:03:22;;;;;;;6.43;1.70;;;22.60;99.90;;;;;;12381350;28;20483;-42
2021/07/07 10:09:25;;;;;;;6.43;1.90;;;22.90;99.90;;;;;;12378644;28;20101;-40
2021/07/07 10:15:28;;;;;;;8.00;1.50;;;22.70;99.90;;;;;;12376144;28;20113;-40
2021/07/07 10:21:29;;;;;;;7.70;1.88;;;22.50;99.90;;;;;;12388203;28;20046;-40
2021/07/07 10:27:32;;;;;;;10.73;1.90;;;22.50;99.90;;;;;;12379928;28;20042;-41
2021/07/07 10:33:36;;;;;;;6.18;1.20;;;22.90;99.90;;;;;;12379486;28;20133;-40
2021/07/07 10:39:42;;;;;;;5.95;1.60;;;23.30;99.90;;;;;;12386700;28;20050;-41
2021/07/07 10:45:44;;;;;;;9.25;2.40;;;23.10;99.90;;;;;;12382840;28;20145;-41
2021/07/07 10:51:48;;;;;;;9.90;1.88;;;22.50;99.90;;;;;;12383622;28;20054;-41
2021/07/07 10:57:50;;;;;;;8.75;1.60;;;22.10;99.90;;;;;;12384649;28;20116;-40
2021/07/07 11:04:03;;;;;;;5.00;1.27;;;22.80;99.90;;;;;;12390581;28;20478;-41
2021/07/07 11:10:10;;;;;;;7.13;1.42;;;23.70;99.90;;;;;;12393538;28;20403;-41
2021/07/07 11:16:12;;;;;;;5.10;1.30;;;24.20;99.90;;;;;;12384002;28;20054;-42
2021/07/07 11:22:17;;;;;;;8.27;1.27;;;24.50;99.90;;;;;;12380794;28;20404;-41
2021/07/07 11:28:21;;;;;;;7.93;1.55;;;24.60;99.90;;;;;;12386240;28;20046;-40
2021/07/07 11:34:23;;;;;;;4.85;1.20;;;24.60;99.90;;;;;;12380785;28;20053;-40
2021/07/07 11:40:26;;;;;;;7.65;1.83;;;25.00;99.90;;;;;;12392159;28;20050;-41
2021/07/07 11:46:31;;;;;;;6.78;1.20;;;24.90;99.90;;;;;;12392488;28;20123;-40
2021/07/07 11:52:33;;;;;;;5.55;1.33;;;24.00;99.90;;;;;;12392501;28;20061;-41
2021/07/07 11:58:38;;;;;;;7.07;1.63;;;23.30;99.90;;;;;;12393934;28;20121;-41
2021/07/07 12:04:44;;;;;;;7.32;1.35;;;23.40;99.90;;;;;;12394474;28;20131;-40
2021/07/07 12:10:47;;;;;;;6.88;1.73;;;24.30;99.90;;;;;;12391469;28;20116;-41
2021/07/07 12:16:49;;;;;;;5.45;1.20;;;24.30;99.90;;;;;;12388882;28;20054;-41
2021/07/07 12:23:02;;;;;;;6.20;1.60;;;23.20;99.90;;;;;;12389103;28;21050;-41
2021/07/07 12:29:05;;;;;;;5.22;1.70;;;22.50;99.90;;;;;;12392783;28;20089;-41
2021/07/07 12:35:08;;;;;;;7.05;1.60;;;22.20;99.90;;;;;;12390748;28;20054;-40
2021/07/07 12:41:10;;;;;;;7.17;2.10;;;22.10;99.90;;;;;;12390455;28;20467;-41
2021/07/07 12:47:14;;;;;;;9.80;1.48;;;22.20;99.90;;;;;;12390082;28;20058;-40
2021/07/07 12:53:31;;;;;;;7.43;1.92;;;22.50;99.90;;;;;;12394011;28;20426;-41
2021/07/07 12:59:33;;;;;;;5.20;1.55;;;23.50;99.90;;;;;;12384635;28;20469;-40
2021/07/07 13:05:42;;;;;;;6.13;1.33;;;23.00;99.90;;;;;;12386462;28;20165;-40
2021/07/07 13:11:45;;;;;;;11.30;1.73;;;22.80;99.90;;;;;;12389211;28;20521;-40
2021/07/07 13:18:00;;;;;;;5.43;1.37;;;23.70;99.90;;;;;;12392094;28;20485;-40
2021/07/07 13:24:05;;;;;;;5.43;1.08;;;24.60;99.90;;;;;;12394879;28;20061;-41
2021/07/07 13:30:07;;;;;;;5.78;1.40;;;23.90;99.90;;;;;;12391246;28;20103;-41
2021/07/07 13:36:09;;;;;;;5.15;1.33;;;23.00;99.90;;;;;;12386271;28;20073;-40
2021/07/07 13:42:11;;;;;;;10.95;1.80;;;22.60;99.90;;;;;;12385246;28;20046;-41
2021/07/07 13:48:13;;;;;;;5.60;1.50;;;22.50;99.90;;;;;;12385378;28;20084;-40
2021/07/07 13:54:15;;;;;;;9.32;1.75;;;22.50;99.90;;;;;;12383093;28;20096;-42
2021/07/07 14:00:17;;;;;;;5.00;1.52;;;22.70;99.90;;;;;;12386809;28;20054;-42
2021/07/07 14:06:19;;;;;;;7.18;1.40;;;22.90;99.90;;;;;;12383294;28;20041;-40
2021/07/07 14:12:21;;;;;;;6.22;1.58;;;23.00;99.90;;;;;;12385053;28;20046;-41
2021/07/07 14:18:23;;;;;;;6.78;1.70;;;23.70;99.90;;;;;;12374660;28;20132;-42
2021/07/07 14:24:25;;;;;;;8.55;1.52;;;23.90;99.90;;;;;;12384402;28;20076;-42
2021/07/07 14:30:26;;;;;;;5.93;1.48;;;24.70;99.90;;;;;;12379414;28;20042;-42
2021/07/07 14:36:30;;;;;;;5.72;1.48;;;25.00;99.90;;;;;;12377753;28;20108;-41
2021/07/07 14:42:32;;;;;;;;;;;25.10;99.90;;;;;;12379503;28;20042;-41
2021/07/07 14:48:37;;;;;;;5.72;1.08;;;24.90;99.90;;;;;;12381859;28;20437;-41
2021/07/07 14:54:39;;;;;;;4.53;1.30;;;24.60;99.90;;;;;;12377063;28;20104;-42
2021/07/07 15:00:40;;;;;;;4.03;1.38;;;25.10;99.90;;;;;;12382542;28;20051;-40
2021/07/07 15:06:42;;;;;;;7.32;1.50;;;25.00;99.90;;;;;;12381191;28;20108;-41
2021/07/07 15:12:44;;;;;;;7.25;1.42;;;23.90;99.90;;;;;;12387305;28;20053;-41
2021/07/07 15:18:46;;;;;;;5.10;1.50;;;23.40;99.90;;;;;;12393495;28;20054;-41
2021/07/07 15:24:48;;;;;;;5.93;1.52;;;23.10;99.90;;;;;;12390834;28;20282;-40
2021/07/07 15:30:52;;;;;;;6.07;1.48;;;22.70;99.90;;;;;;12393890;28;20523;-42
2021/07/07 15:36:53;;;;;;;4.38;1.23;;;22.60;99.90;;;;;;12389056;28;20053;-41
2021/07/07 15:42:56;;;;;;;8.13;1.70;;;22.50;99.90;;;;;;12394050;28;20133;-40
2021/07/07 15:48:58;;;;;;;5.85;1.40;;;22.50;99.90;;;;;;12390560;28;20054;-41
2021/07/07 15:54:59;;;;;;;4.93;1.50;;;22.50;99.90;;;;;;12382642;28;20050;-42
2021/07/07 16:01:02;;;;;;;5.32;1.50;;;22.60;99.90;;;;;;12392056;28;20092;-40
2021/07/07 16:07:04;;;;;;;5.63;1.60;;;22.90;99.90;;;;;;12398895;28;20057;-43
2021/07/07 16:13:06;;;;;;;5.40;1.38;;;23.30;99.90;;;;;;12393531;28;20799;-41
2021/07/07 16:19:08;;;;;;;5.30;1.00;;;23.90;99.90;;;;;;12395232;28;20046;-42
2021/07/07 16:25:11;;;;;;;4.57;0.98;;;24.50;99.90;;;;;;12391187;28;20088;-41
2021/07/07 16:31:18;;;;;;;3.10;1.00;;;25.00;99.90;;;;;;12387197;28;20669;-41
2021/07/07 16:37:20;;;;;;;4.47;1.00;;;25.00;99.90;;;;;;12388377;28;20046;-40
2021/07/07 16:43:23;;;;;;;3.80;1.33;;;25.20;99.90;;;;;;12386729;28;20463;-39
2021/07/07 16:49:25;;;;;;;3.92;1.10;;;25.30;99.90;;;;;;12388448;28;20054;-39
2021/07/07 16:55:27;;;;;;;5.13;1.00;;;25.60;99.90;;;;;;12392711;28;20043;-40
2021/07/07 17:01:29;;;;;;;4.65;1.13;;;25.80;99.90;;;;;;12386663;28;20058;-40
2021/07/07 17:07:31;;;;;;;5.63;1.13;;;26.10;99.90;;;;;;12390934;28;20519;-44
2021/07/07 17:13:34;;;;;;;1.80;0.82;;;26.40;99.90;;;;;;12386503;28;20076;-39
2021/07/07 17:19:36;;;;;;;4.47;1.15;;;26.80;99.90;;;;;;12376164;28;20058;-39
2021/07/07 17:25:38;;;;;;;3.53;1.10;;;27.00;99.90;;;;;;12389787;28;20108;-39
2021/07/07 17:31:40;;;;;;;5.50;1.10;;;27.10;99.90;;;;;;12391911;28;20054;-40
2021/07/07 17:37:42;;;;;;;6.97;1.23;;;27.30;99.90;;;;;;12384469;28;20617;-40
2021/07/07 17:43:44;;;;;;;2.90;0.98;;;26.40;99.90;;;;;;12383430;28;20113;-39
2021/07/07 17:49:45;;;;;;;4.67;1.23;;;27.50;99.90;;;;;;12387252;28;20107;-39
2021/07/07 17:55:48;;;;;;;4.70;1.40;;;27.90;99.90;;;;;;12388641;28;20062;-39
2021/07/07 18:01:50;;;;;;;4.00;1.30;;;28.10;99.90;;;;;;12384888;28;20092;-39
2021/07/07 18:07:52;;;;;;;5.43;1.33;;;26.10;99.90;;;;;;12391021;28;20081;-39
2021/07/07 18:13:54;;;;;;;4.68;1.33;;;24.70;99.90;;;;;;12381449;28;20153;-38
2021/07/07 18:19:56;;;;;;;5.00;1.45;;;23.50;99.90;;;;;;12384774;28;20084;-39
2021/07/07 18:25:58;;;;;;;5.00;1.50;;;22.90;99.90;;;;;;12376665;28;20402;-39
2021/07/07 18:31:59;;;;;;;8.07;2.00;;;22.30;99.90;;;;;;12383816;28;20050;-39
2021/07/07 18:38:02;;;;;;;6.68;1.42;;;21.90;99.90;;;;;;12386125;28;20068;-39
2021/07/07 18:44:04;;;;;;;6.95;1.55;;;21.80;99.90;;;;;;12386245;28;20087;-40
2021/07/07 18:50:06;;;;;;;5.60;1.45;;;21.60;99.90;;;;;;12392537;28;20103;-39
2021/07/07 18:56:12;;;;;;;6.43;1.70;;;21.50;99.90;;;;;;12397180;28;20590;-40
2021/07/07 19:02:14;;;;;;;7.97;1.80;;;21.30;99.90;;;;;;12388263;28;20046;-39
2021/07/07 19:08:16;;;;;;;7.57;1.83;;;21.10;99.90;;;;;;12397605;28;20069;-40
2021/07/07 19:14:18;;;;;;;7.40;1.92;;;20.90;99.90;;;;;;12390963;28;20057;-38
2021/07/07 19:20:23;;;;;;;5.03;1.85;;;20.80;99.90;;;;;;12396776;28;20050;-39
2021/07/07 19:26:27;;;;;;;5.28;1.60;;;20.80;99.90;;;;;;12393152;28;20077;-39
2021/07/07 19:32:29;;;;;;;6.25;1.80;;;20.60;99.90;;;;;;12394243;28;20072;-38
2021/07/07 19:38:31;;;;;;;5.40;1.98;;;20.50;99.90;;;;;;12395543;28;20085;-39
2021/07/07 19:44:33;;;;;;;4.03;1.50;;;20.40;99.90;;;;;;12398874;28;20080;-39
2021/07/07 19:50:35;;;;;;;6.40;1.80;;;20.40;99.90;;;;;;12396140;28;20076;-39
2021/07/07 19:56:37;;;;;;;4.57;1.60;;;20.40;99.90;;;;;;12394273;28;20414;-39
2021/07/07 20:02:40;;;;;;;5.13;1.50;;;20.30;99.90;;;;;;12395269;28;20050;-39
2021/07/07 20:08:42;;;;;;;5.27;1.63;;;20.40;99.90;;;;;;12392801;28;20058;-40
2021/07/07 20:14:43;;;;;;;7.90;1.58;;;20.30;99.90;;;;;;12391720;28;20042;-39
2021/07/07 20:20:45;;;;;;;4.85;1.65;;;20.10;99.90;;;;;;12385015;28;20050;-39
2021/07/07 20:26:47;;;;;;;4.53;1.63;;;20.10;99.90;;;;;;12394825;28;20442;-39
2021/07/07 20:32:49;;;;;;;5.45;1.60;;;20.20;99.90;;;;;;12388484;28;21160;-38
2021/07/07 20:38:51;;;;;;;6.78;2.00;;;20.00;99.90;;;;;;12396203;28;20939;-41
2021/07/07 20:44:53;;;;;;;4.72;1.60;;;19.80;99.90;;;;;;12396491;28;20046;-39
2021/07/07 20:50:56;;;;;;;5.38;1.65;;;19.70;99.90;;;;;;12397321;28;20054;-38
2021/07/07 20:56:59;;;;;;;4.50;1.53;;;19.70;99.90;;;;;;12394084;28;20070;-40
2021/07/07 21:03:01;;;;;;;3.17;1.23;;;19.50;99.90;;;;;;12391620;28;20396;-39
2021/07/07 21:09:04;;;;;;;5.53;1.50;;;19.30;99.90;;;;;;12394115;28;20069;-38
2021/07/07 21:15:07;;;;;;;3.90;1.33;;;19.10;99.90;;;;;;12390801;28;20124;-39
2021/07/07 21:21:09;;;;;;;5.03;1.67;;;19.10;99.90;;;;;;12391412;28;20049;-39
2021/07/07 21:27:11;;;;;;;5.28;2.17;;;19.30;99.90;;;;;;12396239;28;20046;-39
2021/07/07 21:33:13;;;;;;;6.00;2.00;;;19.00;99.90;;;;;;12392693;28;20490;-39
2021/07/07 21:39:15;;;;;;;3.63;1.48;;;19.10;99.90;;;;;;12388901;28;20067;-39
2021/07/07 21:45:17;;;;;;;8.63;2.30;;;19.00;99.90;;;;;;12391932;28;20050;-38
2021/07/07 21:51:20;;;;;;;4.77;1.87;;;19.00;99.90;;;;;;12388668;28;20068;-39
2021/07/07 21:57:22;;;;;;;5.18;1.85;;;19.00;99.90;;;;;;12397345;28;20058;-38
2021/07/07 22:03:24;;;;;;;3.63;1.50;;;19.00;99.90;;;;;;12392510;28;20117;-38
2021/07/07 22:09:26;;;;;;;7.38;1.70;;;19.00;99.90;;;;;;12393544;28;20050;-39
2021/07/07 22:15:28;;;;;;;4.60;1.80;;;18.80;99.90;;;;;;12393279;28;20054;-40
2021/07/07 22:21:30;;;;;;;5.22;1.85;;;18.50;99.90;;;;;;12392551;28;20548;-38
2021/07/07 22:27:32;;;;;;;8.25;2.38;;;18.70;99.90;;;;;;12386299;28;20050;-38
2021/07/07 22:33:34;;;;;;;5.30;2.10;;;18.70;99.90;;;;;;12390709;28;20077;-38
2021/07/07 22:39:36;;;;;;;7.05;2.22;;;18.50;99.90;;;;;;12391391;28;20319;-38
2021/07/07 22:45:38;;;;;;;4.68;2.25;;;18.50;99.90;;;;;;12385913;28;20050;-39
2021/07/07 22:51:40;;;;;;;6.13;1.90;;;18.50;99.90;;;;;;12394520;28;20072;-39
2021/07/07 22:57:43;;;;;;;11.50;2.15;;;18.50;99.90;;;;;;12392838;28;20054;-38
2021/07/07 23:03:45;;;;;;;5.35;2.20;;;18.30;99.90;;;;;;12384821;28;20038;-38
2021/07/07 23:09:47;;;;;;;5.72;2.30;;;18.10;99.90;;;;;;12389840;28;20483;-38
2021/07/07 23:15:49;;;;;;;3.75;1.80;;;18.10;99.90;;;;;;12387929;28;20575;-38
2021/07/07 23:21:52;;;;;;;4.55;2.00;;;18.20;99.90;;;;;;12385921;28;20469;-38
2021/07/07 23:27:54;;;;;;;7.28;2.13;;;18.30;99.90;;;;;;12391499;28;21037;-38
2021/07/07 23:33:56;;;;;;;5.47;1.77;;;18.30;99.90;;;;;;12391339;28;20661;-38
2021/07/07 23:39:58;;;;;;;5.97;1.70;;;18.30;99.90;;;;;;12393939;28;20112;-38
2021/07/07 23:45:59;;;;;;;6.60;1.60;;;18.40;99.90;;;;;;12393504;28;20109;-38
2021/07/07 23:52:03;;;;;;;5.00;2.10;;;18.40;99.90;;;;;;12395163;28;20100;-38
2021/07/07 23:58:04;;;;;;;7.27;1.93;;;18.20;99.90;;;;;;12396490;28;20049;-38
